Terminal Aerodrome Forecast
Issued by NWS

Home | Current Version | Previous Version | Text Only | Print | Product List | Glossary On
Versions: 1 2 3 4 5 6 7 8 9 10 11 12 13 14 15 16 17
000
FTUS43 KAPX 300900 AAB
TAFAPN
TAF AMD
KAPN 300945Z 3010/3106 19005KT P6SM BKN100
     FM301400 19009G16KT 5SM -SHRA VCTS SCT035CB BKN060 OVC110
     FM301700 19009G16KT P6SM VCSH BKN040 OVC100
     FM302100 19008KT 4SM -TSRA BR OVC030CB
     FM310100 20005KT P6SM BKN035
     FM310400 25005KT 6SM BR OVC008=

USA.gov is the U.S. government's official web portal to all federal, state and local government web resources and services.